Terminal Aerodrome Forecast
Issued by NWS Twin Cities, MN

Home | Current Version | Previous Version | Text Only | Print | Product List | Glossary On
Versions: 1 2 3 4 5 6 7 8 9 10 11 12 13 14 15 16 17 18
928
FTUS43 KMPX 282339
TAFSTC
TAF
KSTC 282339Z 2900/2924 07004KT 6SM -RA BR OVC040
      TEMPO 2900/2903 4SM -RA BR BKN025
     FM290300 04003KT P6SM BKN050
     FM291500 06006KT P6SM SCT050 BKN100=

USA.gov is the U.S. government's official web portal to all federal, state and local government web resources and services.